^^
B2 Weather Station Historical Data
Daily Summary for January 2, 2018 Units:  English    Metric   Both
Daily Weekly Monthly Yearly Custom
  High: Low: Average:
Temperature: 5.7 °F -13.8 °F -4.3 °F
Dew Point: -0.2 °F -18.2 °F -9.6 °F
Humidity: 82% 71% 78%
Wind Speed: 16.1mph 0.0mph 7.1mph
Wind Gust: 16.1mph - -
Wind- - SW
Pressure: 30.79 in 30.20 in -
Precipitation: 0.00 in    
Historical Graphs
 
 
Tabular Data for January 2, 2018
Time Temperature Dew Point Pressure Wind Wind Speed Wind Gust Humidity Rainfall Rate (Hourly) solar
00:00 -10.7 °F -15.2 °F 30.79 in WSW 3.5 mph 3.5 mph 80% 0.00 in 0.0 W/m2
00:04 -10.6 °F -15.1 °F 30.79 in WSW 4.6 mph 4.6 mph 80% 0.00 in 0.0 W/m2
00:12 -10.5 °F -15.0 °F 30.79 in West 8.1 mph 8.1 mph 80% 0.00 in 0.0 W/m2
00:14 -10.5 °F -15.0 °F 30.79 in WSW 3.5 mph 4.3 mph 80% 0.00 in 0.0 W/m2
00:17 -10.4 °F -14.9 °F 30.78 in West 8.1 mph 8.1 mph 80% 0.00 in 0.0 W/m2
00:21 -10.2 °F -14.4 °F 30.79 in WSW 4.6 mph 4.6 mph 81% 0.00 in 0.0 W/m2
00:25 -10.2 °F -14.4 °F 30.79 in WSW 8.1 mph 8.1 mph 81% 0.00 in 0.0 W/m2
00:27 -10.2 °F -14.4 °F 30.79 in WSW 5.8 mph 5.8 mph 81% 0.00 in 0.0 W/m2
00:32 -10.0 °F -14.2 °F 30.78 in WSW 6.9 mph 6.9 mph 81% 0.00 in 0.0 W/m2
00:41 -9.9 °F -14.1 °F 30.78 in WSW 6.0 mph 6.0 mph 81% 0.00 in 0.0 W/m2
00:42 -9.9 °F -14.1 °F 30.78 in WSW 6.9 mph 6.9 mph 81% 0.00 in 0.0 W/m2
00:48 -9.8 °F -14.0 °F 30.78 in WSW 5.8 mph 5.8 mph 81% 0.00 in 0.0 W/m2
00:54 -9.8 °F -14.3 °F 30.77 in West 8.0 mph 8.0 mph 80% 0.00 in 0.0 W/m2
00:59 -9.9 °F -14.4 °F 30.77 in WSW 5.8 mph 5.8 mph 80% 0.00 in 0.0 W/m2
01:00 -9.9 °F -14.4 °F 30.77 in West 4.6 mph 4.6 mph 80% 0.00 in 0.0 W/m2
01:05 -10.0 °F -14.5 °F 30.77 in WSW 3.5 mph 3.5 mph 80% 0.00 in 0.0 W/m2
01:06 -10.0 °F -14.5 °F 30.77 in WSW 3.5 mph 3.5 mph 80% 0.00 in 0.0 W/m2
01:11 -10.1 °F -14.6 °F 30.77 in West 3.0 mph 3.0 mph 80% 0.00 in 0.0 W/m2
01:12 -10.1 °F -14.6 °F 30.77 in West 8.1 mph 8.1 mph 80% 0.00 in 0.0 W/m2
01:16 -10.2 °F -14.4 °F 30.77 in West 2.3 mph 2.3 mph 81% 0.00 in 0.0 W/m2
01:18 -10.2 °F -14.4 °F 30.77 in WSW 4.0 mph 4.0 mph 81% 0.00 in 0.0 W/m2
01:23 -10.4 °F -14.6 °F 30.77 in WSW 6.9 mph 6.9 mph 81% 0.00 in 0.0 W/m2
01:24 -10.4 °F -14.6 °F 30.77 in WSW 6.9 mph 6.9 mph 81% 0.00 in 0.0 W/m2
01:29 -10.5 °F -14.7 °F 30.77 in WSW 5.0 mph 5.0 mph 81% 0.00 in 0.0 W/m2
01:32 -10.6 °F -14.8 °F 30.77 in West 5.8 mph 5.8 mph 81% 0.00 in 0.0 W/m2
01:36 -10.6 °F -14.8 °F 30.77 in West 4.6 mph 4.6 mph 81% 0.00 in 0.0 W/m2
01:40 -10.7 °F -14.9 °F 30.78 in WSW 5.8 mph 5.8 mph 81% 0.00 in 0.0 W/m2
01:47 -10.7 °F -14.9 °F 30.78 in WSW 3.5 mph 3.5 mph 81% 0.00 in 0.0 W/m2
01:48 -10.7 °F -14.9 °F 30.78 in West 5.8 mph 5.8 mph 81% 0.00 in 0.0 W/m2
01:53 -10.7 °F -14.9 °F 30.78 in WSW 2.3 mph 2.3 mph 81% 0.00 in 0.0 W/m2
01:54 -10.7 °F -14.9 °F 30.78 in WSW 2.3 mph 2.3 mph 81% 0.00 in 0.0 W/m2
01:57 -10.6 °F -14.8 °F 30.78 in North 8.1 mph 8.1 mph 81% 0.00 in 0.0 W/m2
01:59 -10.7 °F -14.9 °F 30.78 in WSW 4.6 mph 4.6 mph 81% 0.00 in 0.0 W/m2
02:04 -10.8 °F -15.0 °F 30.78 in WSW 3.5 mph 3.5 mph 81% 0.00 in 0.0 W/m2
02:10 -11.0 °F -15.2 °F 30.78 in WSW 6.9 mph 6.9 mph 81% 0.00 in 0.0 W/m2
02:15 -11.1 °F -15.3 °F 30.78 in WSW 3.5 mph 3.5 mph 81% 0.00 in 0.0 W/m2
02:16 -11.1 °F -15.3 °F 30.78 in SW 7.0 mph 7.0 mph 81% 0.00 in 0.0 W/m2
02:22 -11.1 °F -15.1 °F 30.78 in WSW 3.5 mph 3.5 mph 82% 0.00 in 0.0 W/m2
02:28 -11.1 °F -15.1 °F 30.78 in WSW 3.5 mph 3.5 mph 82% 0.00 in 0.0 W/m2
02:30 -11.1 °F -15.3 °F 30.78 in WSW 3.5 mph 3.5 mph 81% 0.00 in 0.0 W/m2
02:36 -11.3 °F -15.5 °F 30.78 in WSW 3.5 mph 3.5 mph 81% 0.00 in 0.0 W/m2
02:41 -11.6 °F -15.8 °F 30.78 in WSW 2.3 mph 2.3 mph 81% 0.00 in 0.0 W/m2
02:46 -11.8 °F -16.0 °F 30.79 in SW 6.9 mph 6.9 mph 81% 0.00 in 0.0 W/m2
02:48 -11.8 °F -16.0 °F 30.79 in WSW 5.8 mph 5.8 mph 81% 0.00 in 0.0 W/m2
02:53 -11.8 °F -16.0 °F 30.78 in WSW 3.5 mph 3.5 mph 81% 0.00 in 0.0 W/m2
02:56 -11.8 °F -15.8 °F 30.78 in WSW 6.9 mph 6.9 mph 82% 0.00 in 0.0 W/m2
03:01 -11.8 °F -15.8 °F 30.78 in West 6.9 mph 6.9 mph 82% 0.00 in 0.0 W/m2
03:02 -11.8 °F -15.8 °F 30.78 in West 3.5 mph 3.5 mph 82% 0.00 in 0.0 W/m2
03:04 -11.8 °F -15.8 °F 30.77 in WSW 4.0 mph 4.0 mph 82% 0.00 in 0.0 W/m2
03:09 -11.8 °F -15.8 °F 30.77 in SW 5.8 mph 5.8 mph 82% 0.00 in 0.0 W/m2
03:10 -11.9 °F -15.8 °F 30.77 in WSW 4.0 mph 4.0 mph 82% 0.00 in 0.0 W/m2
03:14 -11.9 °F -15.8 °F 30.77 in WSW 5.0 mph 5.0 mph 82% 0.00 in 0.0 W/m2
03:15 -11.9 °F -15.8 °F 30.77 in WSW 9.2 mph 9.2 mph 82% 0.00 in 0.0 W/m2
03:20 -11.8 °F -15.8 °F 30.77 in WSW 3.5 mph 3.5 mph 82% 0.00 in 0.0 W/m2
03:21 -11.8 °F -15.8 °F 30.77 in WSW 3.5 mph 3.5 mph 82% 0.00 in 0.0 W/m2
03:26 -11.7 °F -15.7 °F 30.77 in WSW 4.6 mph 4.6 mph 82% 0.00 in 0.0 W/m2
03:27 -11.7 °F -15.7 °F 30.76 in WSW 5.0 mph 5.0 mph 82% 0.00 in 0.0 W/m2
03:32 -11.6 °F -15.6 °F 30.76 in West 4.6 mph 4.6 mph 82% 0.00 in 0.0 W/m2
03:34 -11.6 °F -15.6 °F 30.76 in West 6.9 mph 6.9 mph 82% 0.00 in 0.0 W/m2
03:37 -11.6 °F -15.6 °F 30.76 in WSW 6.9 mph 6.9 mph 82% 0.00 in 0.0 W/m2
03:40 -11.6 °F -15.6 °F 30.77 in WNW 6.9 mph 6.9 mph 82% 0.00 in 0.0 W/m2
03:47 -11.5 °F -15.5 °F 30.77 in WSW 4.0 mph 4.0 mph 82% 0.00 in 0.0 W/m2
03:52 -11.7 °F -15.7 °F 30.76 in WSW 4.6 mph 4.6 mph 82% 0.00 in 0.0 W/m2
03:57 -12.0 °F -15.9 °F 30.76 in SW 6.0 mph 6.0 mph 82% 0.00 in 0.0 W/m2
04:02 -12.1 °F -16.3 °F 30.76 in WSW 3.5 mph 3.5 mph 81% 0.00 in 0.0 W/m2
04:03 -12.2 °F -16.4 °F 30.76 in WSW 3.5 mph 3.5 mph 81% 0.00 in 0.0 W/m2
04:08 -12.3 °F -16.5 °F 30.76 in West 4.6 mph 4.6 mph 81% 0.00 in 0.0 W/m2
04:13 -12.4 °F -16.6 °F 30.76 in WSW 4.0 mph 4.0 mph 81% 0.00 in 0.0 W/m2
04:15 -12.3 °F -16.5 °F 30.76 in West 5.8 mph 5.8 mph 81% 0.00 in 0.0 W/m2
04:22 -12.2 °F -16.1 °F 30.75 in WSW 3.5 mph 4.0 mph 82% 0.00 in 0.0 W/m2
04:24 -12.2 °F -16.1 °F 30.75 in WSW 5.8 mph 5.8 mph 82% 0.00 in 0.0 W/m2
04:28 -12.2 °F -16.1 °F 30.75 in WSW 3.5 mph 3.5 mph 82% 0.00 in 0.0 W/m2
04:29 -12.2 °F -16.1 °F 30.75 in WSW 3.0 mph 3.0 mph 82% 0.00 in 0.0 W/m2
04:34 -12.2 °F -16.1 °F 30.75 in WSW 3.5 mph 3.5 mph 82% 0.00 in 0.0 W/m2
04:35 -12.2 °F -16.1 °F 30.75 in WSW 6.0 mph 6.0 mph 82% 0.00 in 0.0 W/m2
04:40 -12.2 °F -16.1 °F 30.75 in WSW 3.5 mph 3.5 mph 82% 0.00 in 0.0 W/m2
04:45 -12.1 °F -16.0 °F 30.75 in WSW 3.5 mph 3.5 mph 82% 0.00 in 0.0 W/m2
04:46 -12.1 °F -16.0 °F 30.75 in WSW 4.6 mph 4.6 mph 82% 0.00 in 0.0 W/m2
04:47 -12.1 °F -16.0 °F 30.75 in WSW 5.0 mph 5.0 mph 82% 0.00 in 0.0 W/m2
04:52 -12.1 °F -16.0 °F 30.75 in WSW 3.5 mph 3.5 mph 82% 0.00 in 0.0 W/m2
04:53 -12.1 °F -16.0 °F 30.75 in WSW 5.8 mph 5.8 mph 82% 0.00 in 0.0 W/m2
04:58 -12.2 °F -16.1 °F 30.75 in WSW 6.0 mph 6.0 mph 82% 0.00 in 0.0 W/m2
05:03 -12.3 °F -16.5 °F 30.75 in WSW 5.8 mph 5.8 mph 81% 0.00 in 0.0 W/m2
05:04 -12.3 °F -16.5 °F 30.75 in WSW 4.6 mph 4.6 mph 81% 0.00 in 0.0 W/m2
05:07 -12.4 °F -16.6 °F 30.75 in SW 5.8 mph 5.8 mph 81% 0.00 in 0.0 W/m2
05:09 -12.3 °F -16.5 °F 30.75 in WSW 8.1 mph 8.1 mph 81% 0.00 in 0.0 W/m2
05:15 -12.3 °F -16.2 °F 30.75 in WSW 5.8 mph 5.8 mph 82% 0.00 in 0.0 W/m2
05:19 -12.2 °F -16.1 °F 30.75 in WSW 6.9 mph 6.9 mph 82% 0.00 in 0.0 W/m2
05:20 -12.2 °F -16.1 °F 30.75 in SW 6.9 mph 6.9 mph 82% 0.00 in 0.0 W/m2
05:28 -12.2 °F -16.1 °F 30.75 in WSW 6.0 mph 6.0 mph 82% 0.00 in 0.0 W/m2
05:31 -12.3 °F -16.5 °F 30.74 in WSW 5.8 mph 5.8 mph 81% 0.00 in 0.0 W/m2
05:33 -12.3 °F -16.5 °F 30.74 in WSW 4.6 mph 4.8 mph 81% 0.00 in 0.0 W/m2
05:38 -12.5 °F -16.7 °F 30.74 in SW 5.8 mph 5.8 mph 81% 0.00 in 0.0 W/m2
05:39 -12.6 °F -16.8 °F 30.74 in SW 5.8 mph 5.8 mph 81% 0.00 in 0.0 W/m2
05:43 -13.0 °F -17.4 °F 30.74 in WSW 5.8 mph 5.8 mph 80% 0.00 in 0.0 W/m2
05:46 -13.3 °F -17.7 °F 30.74 in SW 5.8 mph 5.8 mph 80% 0.00 in 0.0 W/m2
05:49 -13.4 °F -17.8 °F 30.73 in SW 6.9 mph 6.9 mph 80% 0.00 in 0.0 W/m2
05:55 -13.7 °F -18.1 °F 30.73 in SW 8.1 mph 8.1 mph 80% 0.00 in 0.0 W/m2
06:00 -13.8 °F -18.2 °F 30.74 in SW 6.9 mph 6.9 mph 80% 0.00 in 0.0 W/m2
06:01 -13.8 °F -18.2 °F 30.74 in WSW 8.1 mph 8.1 mph 80% 0.00 in 0.0 W/m2
06:06 -13.8 °F -18.0 °F 30.74 in WSW 6.9 mph 6.9 mph 81% 0.00 in 0.0 W/m2
06:08 -13.8 °F -18.0 °F 30.74 in WSW 3.5 mph 3.5 mph 81% 0.00 in 0.0 W/m2
06:14 -13.7 °F -17.9 °F 30.75 in WSW 4.6 mph 4.6 mph 81% 0.00 in 0.0 W/m2
06:19 -13.7 °F -17.9 °F 30.75 in WSW 3.5 mph 3.5 mph 81% 0.00 in 0.0 W/m2
06:21 -13.7 °F -17.9 °F 30.75 in WSW 3.5 mph 3.5 mph 81% 0.00 in 0.0 W/m2
06:26 -13.8 °F -18.0 °F 30.75 in WSW 1.2 mph 1.2 mph 81% 0.00 in 0.0 W/m2
06:27 -13.8 °F -18.0 °F 30.75 in WSW 1.2 mph 1.2 mph 81% 0.00 in 0.0 W/m2
06:28 -13.8 °F -18.0 °F 30.75 in WSW 1.2 mph   81% 0.00 in 0.0 W/m2
06:32 -13.8 °F -18.0 °F 30.75 in WSW 3.5 mph 3.5 mph 81% 0.00 in 0.0 W/m2
06:36 -13.8 °F -18.0 °F 30.75 in WSW 3.5 mph 3.5 mph 81% 0.00 in 0.0 W/m2
06:38 -13.8 °F -18.0 °F 30.75 in WSW 5.8 mph 5.8 mph 81% 0.00 in 0.0 W/m2
06:43 -13.8 °F -18.0 °F 30.74 in North 5.0 mph 5.0 mph 81% 0.00 in 0.0 W/m2
06:46 -13.8 °F -18.0 °F 30.75 in WSW 3.5 mph 3.5 mph 81% 0.00 in 0.0 W/m2
06:49 -13.7 °F -17.9 °F 30.74 in North 8.1 mph 8.1 mph 81% 0.00 in 0.0 W/m2
06:51 -13.6 °F -17.8 °F 30.75 in WSW 3.5 mph 3.5 mph 81% 0.00 in 0.0 W/m2
06:56 -13.6 °F -17.8 °F 30.75 in West 4.6 mph 4.6 mph 81% 0.00 in 0.0 W/m2
06:58 -13.5 °F -17.7 °F 30.75 in West 5.8 mph 5.8 mph 81% 0.00 in 0.0 W/m2
07:03 -13.5 °F -17.7 °F 30.75 in West 3.5 mph 3.5 mph 81% 0.00 in 0.0 W/m2
07:08 -13.5 °F -17.7 °F 30.75 in West 2.3 mph 2.3 mph 81% 0.00 in 0.0 W/m2
07:13 -13.6 °F -17.8 °F 30.74 in West 3.5 mph 3.5 mph 81% 0.00 in 0.0 W/m2
07:17 -13.6 °F -17.8 °F 30.75 in WSW 3.5 mph 3.5 mph 81% 0.00 in 5.0 W/m2
07:19 -13.6 °F -17.8 °F 30.75 in WSW 3.5 mph 3.5 mph 81% 0.00 in 5.0 W/m2
07:24 -13.5 °F -17.7 °F 30.74 in WSW 3.5 mph 3.5 mph 81% 0.00 in 9.0 W/m2
07:25 -13.5 °F -17.7 °F 30.74 in WSW 3.5 mph 3.5 mph 81% 0.00 in 9.0 W/m2
07:26 -13.5 °F -17.7 °F 30.74 in WSW 2.3 mph 2.3 mph 81% 0.00 in 9.0 W/m2
07:31 -13.4 °F -17.6 °F 30.74 in SW 4.6 mph 4.6 mph 81% 0.00 in 12.0 W/m2
07:36 -13.2 °F -17.4 °F 30.74 in WSW 5.8 mph 5.8 mph 81% 0.00 in 16.0 W/m2
07:37 -13.2 °F -17.4 °F 30.74 in WSW 5.0 mph 5.0 mph 81% 0.00 in 16.0 W/m2
07:38 -13.1 °F -17.3 °F 30.74 in SW 5.8 mph 5.8 mph 81% 0.00 in 18.0 W/m2
07:42 -13.0 °F -17.2 °F 30.74 in SW 2.3 mph 2.3 mph 81% 0.00 in 26.0 W/m2
07:46 -12.8 °F -17.0 °F 30.74 in WSW 5.0 mph 5.0 mph 81% 0.00 in 35.0 W/m2
07:51 -12.6 °F -16.8 °F 30.74 in North 6.0 mph 6.0 mph 81% 0.00 in 47.0 W/m2
07:52 -12.6 °F -16.8 °F 30.74 in SW 8.1 mph 8.1 mph 81% 0.00 in 49.0 W/m2
07:55 -12.4 °F -16.6 °F 30.74 in West 3.5 mph 3.5 mph 81% 0.00 in 56.0 W/m2
07:59 -12.3 °F -16.5 °F 30.74 in West 3.5 mph 3.5 mph 81% 0.00 in 65.0 W/m2
08:03 -12.2 °F -16.4 °F 30.74 in SW 6.9 mph 6.9 mph 81% 0.00 in 74.0 W/m2
08:05 -12.1 °F -16.3 °F 30.74 in WSW 5.8 mph 5.8 mph 81% 0.00 in 77.0 W/m2
08:10 -11.9 °F -16.1 °F 30.74 in WSW 3.5 mph 3.5 mph 81% 0.00 in 93.0 W/m2
08:12 -11.8 °F -16.0 °F 30.74 in WSW 6.0 mph 6.0 mph 81% 0.00 in 98.0 W/m2
08:17 -11.5 °F -15.7 °F 30.74 in WSW 3.5 mph 3.5 mph 81% 0.00 in 113.0 W/m2
08:21 -11.3 °F -15.5 °F 30.74 in West 6.9 mph 6.9 mph 81% 0.00 in 123.0 W/m2
08:23 -11.2 °F -15.4 °F 30.74 in West 5.8 mph 5.8 mph 81% 0.00 in 132.0 W/m2
08:27 -10.9 °F -15.1 °F 30.74 in North 3.5 mph 3.5 mph 81% 0.00 in 141.0 W/m2
08:30 -10.7 °F -14.9 °F 30.75 in WSW 3.0 mph 3.0 mph 81% 0.00 in 149.0 W/m2
08:34 -10.5 °F -14.7 °F 30.74 in Calm   0.4 mph 81% 0.00 in 163.0 W/m2
08:36 -10.3 °F -14.5 °F 30.74 in SW 3.5 mph 3.5 mph 81% 0.00 in 169.0 W/m2
08:41 -9.9 °F -14.1 °F 30.74 in SW 1.2 mph 1.2 mph 81% 0.00 in 185.0 W/m2
08:43 -9.9 °F -14.4 °F 30.74 in SW 2.3 mph 2.3 mph 80% 0.00 in 190.0 W/m2
08:48 -9.7 °F -14.2 °F 30.74 in SW 3.5 mph 3.5 mph 80% 0.00 in 204.0 W/m2
08:50 -9.6 °F -14.1 °F 30.74 in SSW 3.5 mph 3.5 mph 80% 0.00 in 213.0 W/m2
08:55 -9.6 °F -14.3 °F 30.74 in SSW 6.9 mph 6.9 mph 79% 0.00 in 229.0 W/m2
08:58 -9.5 °F -14.2 °F 30.73 in WSW 3.5 mph 3.5 mph 79% 0.00 in 236.0 W/m2
08:59 -9.5 °F -14.2 °F 30.73 in WSW 3.5 mph 3.5 mph 79% 0.00 in 239.0 W/m2
09:03 -9.5 °F -14.5 °F 30.74 in WSW 7.0 mph 7.0 mph 78% 0.00 in 251.0 W/m2
09:09 -9.9 °F -14.9 °F 30.73 in SW 10.4 mph 10.4 mph 78% 0.00 in 267.0 W/m2
09:11 -9.9 °F -14.9 °F 30.73 in SW 9.2 mph 9.2 mph 78% 0.00 in 271.0 W/m2
09:12 -9.8 °F -14.8 °F 30.74 in SW 9.2 mph 9.2 mph 78% 0.00 in 272.0 W/m2
09:17 -9.5 °F -14.5 °F 30.73 in SSW 8.1 mph 8.1 mph 78% 0.00 in 283.0 W/m2
09:18 -9.5 °F -14.2 °F 30.73 in SW 8.1 mph 8.1 mph 79% 0.00 in 287.0 W/m2
09:23 -9.2 °F -14.2 °F 30.73 in SW 8.1 mph 8.1 mph 78% 0.00 in 295.0 W/m2
09:28 -8.9 °F -13.9 °F 30.73 in North 11.5 mph 11.5 mph 78% 0.00 in 308.0 W/m2
09:30 -8.9 °F -13.9 °F 30.73 in SW 8.1 mph 8.1 mph 78% 0.00 in 309.0 W/m2
09:31 -8.8 °F -13.8 °F 30.73 in SW 8.1 mph 8.1 mph 78% 0.00 in 313.0 W/m2
09:36 -8.6 °F -13.6 °F 30.73 in North 12.7 mph 12.7 mph 78% 0.00 in 322.0 W/m2
09:40 -8.4 °F -13.7 °F 30.73 in SW 10.0 mph 10.0 mph 77% 0.00 in 332.0 W/m2
09:44 -8.2 °F -13.5 °F 30.73 in SW 11.5 mph 11.5 mph 77% 0.00 in 336.0 W/m2
09:49 -8.0 °F -13.3 °F 30.73 in WSW 10.4 mph 10.4 mph 77% 0.00 in 346.0 W/m2
09:54 -7.8 °F -13.1 °F 30.73 in SSW 12.7 mph 12.7 mph 77% 0.00 in 357.0 W/m2
09:58 -7.8 °F -13.4 °F 30.73 in WSW 11.5 mph 11.5 mph 76% 0.00 in 362.0 W/m2
10:00 -7.7 °F -13.0 °F 30.73 in WSW 11.5 mph 11.5 mph 77% 0.00 in 366.0 W/m2
10:05 -7.3 °F -12.9 °F 30.73 in WSW 11.5 mph 11.5 mph 76% 0.00 in 374.0 W/m2
10:06 -7.2 °F -12.8 °F 30.73 in West 11.5 mph 11.5 mph 76% 0.00 in 376.0 W/m2
10:11 -7.0 °F -12.6 °F 30.73 in West 9.2 mph 9.2 mph 76% 0.00 in 383.0 W/m2
10:16 -6.6 °F -12.2 °F 30.73 in North 11.5 mph 11.5 mph 76% 0.00 in 390.0 W/m2
10:18 -6.4 °F -12.0 °F 30.72 in SW 6.9 mph 6.9 mph 76% 0.00 in 394.0 W/m2
10:23 -6.2 °F -12.1 °F 30.72 in WSW 8.1 mph 8.1 mph 75% 0.00 in 401.0 W/m2
10:24 -6.1 °F -12.0 °F 30.72 in WSW 9.2 mph 9.2 mph 75% 0.00 in 403.0 W/m2
10:29 -5.9 °F -11.8 °F 30.72 in WSW 8.1 mph 8.1 mph 75% 0.00 in 410.0 W/m2
10:30 -5.9 °F -11.8 °F 30.72 in WSW 8.1 mph 8.1 mph 75% 0.00 in 413.0 W/m2
10:34 -5.5 °F -11.4 °F 30.72 in WSW 10.4 mph 10.4 mph 75% 0.00 in 418.0 W/m2
10:35 -5.5 °F -11.7 °F 30.71 in WSW 9.2 mph 9.2 mph 74% 0.00 in 418.0 W/m2
10:40 -5.3 °F -11.5 °F 30.71 in WSW 9.2 mph 9.2 mph 74% 0.00 in 424.0 W/m2
10:46 -4.8 °F -11.0 °F 30.71 in SW 8.0 mph 8.0 mph 74% 0.00 in 431.0 W/m2
10:51 -4.4 °F -10.6 °F 30.70 in North 9.2 mph 9.2 mph 74% 0.00 in 438.0 W/m2
10:52 -4.3 °F -10.8 °F 30.70 in WSW 8.1 mph 8.1 mph 73% 0.00 in 438.0 W/m2
10:53 -4.3 °F -10.8 °F 30.70 in SW 9.2 mph 9.2 mph 73% 0.00 in 438.0 W/m2
10:58 -3.9 °F -10.4 °F 30.70 in WSW 10.4 mph 10.4 mph 73% 0.00 in 445.0 W/m2
10:59 -3.9 °F -10.4 °F 30.70 in North 10.4 mph 10.4 mph 73% 0.00 in 443.0 W/m2
11:01 -3.9 °F -10.4 °F 30.69 in SW 11.0 mph 11.0 mph 73% 0.00 in 446.0 W/m2
11:04 -3.8 °F -10.6 °F 30.69 in SSW 9.2 mph 9.2 mph 72% 0.00 in 448.0 W/m2
11:07 -3.6 °F -10.4 °F 30.69 in SW 4.6 mph 4.6 mph 72% 0.00 in 450.0 W/m2
11:10 -3.4 °F -10.2 °F 30.69 in SW 6.9 mph 6.9 mph 72% 0.00 in 454.0 W/m2
11:15 -3.1 °F -9.9 °F 30.69 in SW 8.1 mph 8.1 mph 72% 0.00 in 457.0 W/m2
11:16 -3.1 °F -9.9 °F 30.69 in SW 9.0 mph 9.0 mph 72% 0.00 in 457.0 W/m2
11:17 -3.1 °F -9.9 °F 30.69 in WSW 10.4 mph 10.4 mph 72% 0.00 in 455.0 W/m2
11:22 -2.8 °F -9.6 °F 30.68 in SW 7.0 mph 7.0 mph 72% 0.00 in 459.0 W/m2
11:26 -2.4 °F -9.2 °F 30.68 in West 8.1 mph 8.1 mph 72% 0.00 in 462.0 W/m2
11:27 -2.3 °F -9.1 °F 30.68 in WSW 10.4 mph 10.4 mph 72% 0.00 in 462.0 W/m2
11:31 -1.9 °F -8.7 °F 30.68 in SW 5.8 mph 5.8 mph 72% 0.00 in 466.0 W/m2
11:33 -1.8 °F -8.3 °F 30.67 in WSW 6.9 mph 6.9 mph 73% 0.00 in 464.0 W/m2
11:38 -1.3 °F -8.1 °F 30.67 in WSW 10.4 mph 10.4 mph 72% 0.00 in 468.0 W/m2
11:43 -1.0 °F -7.6 °F 30.67 in SW 11.5 mph 11.5 mph 73% 0.00 in 469.0 W/m2
11:44 -1.0 °F -7.6 °F 30.67 in West 10.4 mph 10.4 mph 73% 0.00 in 466.0 W/m2
11:46 -0.8 °F -7.4 °F 30.67 in WSW 8.1 mph 8.1 mph 73% 0.00 in 468.0 W/m2
11:51 -0.3 °F -6.9 °F 30.66 in WSW 6.9 mph 6.9 mph 73% 0.00 in 469.0 W/m2
11:52 -0.3 °F -6.9 °F 30.66 in SW 6.9 mph 6.9 mph 73% 0.00 in 469.0 W/m2
11:57 0.0 °F -6.9 °F 30.66 in SW 5.0 mph 5.0 mph 72% 0.00 in 469.0 W/m2
11:58 0.0 °F -6.9 °F 30.66 in SW 6.9 mph 6.9 mph 72% 0.00 in 469.0 W/m2
12:03 0.0 °F -6.9 °F 30.65 in WSW 8.1 mph 8.1 mph 72% 0.00 in 471.0 W/m2
12:08 0.1 °F -6.8 °F 30.65 in WSW 8.1 mph 8.1 mph 72% 0.00 in 468.0 W/m2
12:11 0.2 °F -6.7 °F 30.65 in SW 9.2 mph 9.2 mph 72% 0.00 in 468.0 W/m2
12:14 0.2 °F -6.7 °F 30.65 in SW 6.9 mph 6.9 mph 72% 0.00 in 468.0 W/m2
12:19 0.4 °F -6.5 °F 30.64 in WSW 8.1 mph 8.1 mph 72% 0.00 in 466.0 W/m2
12:20 0.4 °F -6.5 °F 30.64 in SSW 3.5 mph   72% 0.00 in 466.0 W/m2
12:25 0.4 °F -6.8 °F 30.64 in SW 8.1 mph 8.1 mph 71% 0.00 in 462.0 W/m2
12:26 0.4 °F -6.8 °F 30.64 in SW 6.0 mph 6.0 mph 71% 0.00 in 462.0 W/m2
12:31 0.3 °F -6.9 °F 30.64 in SW 9.2 mph 9.2 mph 71% 0.00 in 461.0 W/m2
12:33 0.3 °F -6.9 °F 30.64 in SW 6.9 mph 6.9 mph 71% 0.00 in 461.0 W/m2
12:38 0.4 °F -6.5 °F 30.63 in WSW 6.0 mph 6.0 mph 72% 0.00 in 457.0 W/m2
12:40 0.5 °F -6.4 °F 30.63 in WSW 8.1 mph 8.1 mph 72% 0.00 in 454.0 W/m2
12:44 0.7 °F -6.2 °F 30.62 in North 5.0 mph 5.0 mph 72% 0.00 in 454.0 W/m2
12:46 0.8 °F -6.1 °F 30.62 in SSW 5.8 mph 5.8 mph 72% 0.00 in 450.0 W/m2
12:51 1.2 °F -5.4 °F 30.62 in WSW 6.9 mph 6.9 mph 73% 0.00 in 446.0 W/m2
12:52 1.2 °F -5.4 °F 30.62 in SW 8.1 mph 8.1 mph 73% 0.00 in 445.0 W/m2
12:57 1.4 °F -5.5 °F 30.62 in WSW 8.1 mph 8.1 mph 72% 0.00 in 443.0 W/m2
13:02 1.4 °F -5.8 °F 30.61 in SSW 8.1 mph 8.1 mph 71% 0.00 in 436.0 W/m2
13:08 1.5 °F -5.4 °F 30.61 in SW 6.9 mph 6.9 mph 72% 0.00 in 431.0 W/m2
13:09 1.5 °F -5.4 °F 30.61 in North 6.0 mph 6.0 mph 72% 0.00 in 429.0 W/m2
13:14 1.5 °F -5.7 °F 30.61 in SW 10.4 mph 10.4 mph 71% 0.00 in 424.0 W/m2
13:15 1.4 °F -5.8 °F 30.61 in SW 11.5 mph 11.5 mph 71% 0.00 in 422.0 W/m2
13:21 1.3 °F -5.9 °F 30.60 in North 4.6 mph 4.6 mph 71% 0.00 in 415.0 W/m2
13:25 1.2 °F -6.0 °F 30.60 in SW 8.1 mph 8.1 mph 71% 0.00 in 410.0 W/m2
13:27 1.2 °F -5.7 °F 30.60 in SW 11.5 mph 11.5 mph 72% 0.00 in 406.0 W/m2
13:32 1.3 °F -5.6 °F 30.60 in WSW 4.0 mph 4.0 mph 72% 0.00 in 403.0 W/m2
13:37 1.5 °F -5.4 °F 30.60 in North 10.4 mph 10.4 mph 72% 0.00 in 392.0 W/m2
13:39 1.6 °F -5.3 °F 30.59 in SW 7.0 mph 7.0 mph 72% 0.00 in 388.0 W/m2
13:43 1.7 °F -5.2 °F 30.59 in SW 8.1 mph 8.1 mph 72% 0.00 in 385.0 W/m2
13:45 1.8 °F -5.2 °F 30.59 in SSW 6.9 mph 6.9 mph 72% 0.00 in 380.0 W/m2
13:48 1.8 °F -5.2 °F 30.59 in SSW 6.9 mph 6.9 mph 72% 0.00 in 374.0 W/m2
13:53 1.7 °F -5.2 °F 30.58 in SSW 10.4 mph 10.4 mph 72% 0.00 in 367.0 W/m2
13:59 1.7 °F -5.2 °F 30.58 in SW 9.2 mph 9.2 mph 72% 0.00 in 357.0 W/m2
14:02 1.7 °F -5.2 °F 30.58 in SW 11.5 mph 11.5 mph 72% 0.00 in 350.0 W/m2
14:05 1.8 °F -5.2 °F 30.58 in SSW 11.5 mph 11.5 mph 72% 0.00 in 346.0 W/m2
14:10 2.0 °F -5.0 °F 30.58 in SW 6.9 mph   72% 0.00 in 334.0 W/m2
14:11 2.1 °F -4.9 °F 30.57 in WSW 2.3 mph 2.3 mph 72% 0.00 in 332.0 W/m2
14:16 2.3 °F -4.7 °F 30.57 in SW 3.5 mph 3.5 mph 72% 0.00 in 320.0 W/m2
14:17 2.4 °F -4.6 °F 30.57 in SW 3.5 mph 3.5 mph 72% 0.00 in 320.0 W/m2
14:22 2.3 °F -4.7 °F 30.57 in SW 9.2 mph 9.2 mph 72% 0.00 in 311.0 W/m2
14:24 2.1 °F -4.9 °F 30.57 in SSW 9.2 mph 9.2 mph 72% 0.00 in 308.0 W/m2
14:29 1.9 °F -5.1 °F 30.57 in SW 11.5 mph 11.5 mph 72% 0.00 in 295.0 W/m2
14:30 1.9 °F -5.1 °F 30.57 in West 10.4 mph 10.4 mph 72% 0.00 in 294.0 W/m2
14:34 2.0 °F -4.7 °F 30.57 in SW 6.9 mph 6.9 mph 73% 0.00 in 283.0 W/m2
14:39 2.4 °F -4.3 °F 30.57 in SSW 8.1 mph 8.1 mph 73% 0.00 in 271.0 W/m2
14:40 2.4 °F -4.3 °F 30.57 in SSW 8.1 mph 8.1 mph 73% 0.00 in 267.0 W/m2
14:45 2.4 °F -4.6 °F 30.57 in North 9.0 mph 9.0 mph 72% 0.00 in 253.0 W/m2
14:46 2.5 °F -4.5 °F 30.57 in North 9.2 mph 9.2 mph 72% 0.00 in 253.0 W/m2
14:51 2.4 °F -4.6 °F 30.57 in SW 11.5 mph 11.5 mph 72% 0.00 in 239.0 W/m2
14:56 2.4 °F -4.6 °F 30.56 in SW 8.0 mph 8.0 mph 72% 0.00 in 223.0 W/m2
15:01 2.3 °F -4.7 °F 30.56 in SW 9.2 mph 9.2 mph 72% 0.00 in 207.0 W/m2
15:03 2.3 °F -4.7 °F 30.56 in SW 13.0 mph 13.0 mph 72% 0.00 in 202.0 W/m2
15:04 2.2 °F -4.8 °F 30.55 in WSW 13.8 mph 13.8 mph 72% 0.00 in 195.0 W/m2
15:08 2.4 °F -4.6 °F 30.55 in SW 9.2 mph 9.2 mph 72% 0.00 in 185.0 W/m2
15:13 2.6 °F -4.4 °F 30.55 in SSW 6.9 mph 6.9 mph 72% 0.00 in 169.0 W/m2
15:19 2.6 °F -4.4 °F 30.55 in SSW 6.9 mph 6.9 mph 72% 0.00 in 148.0 W/m2
15:20 2.6 °F -4.4 °F 30.55 in SSW 6.9 mph 6.9 mph 72% 0.00 in 144.0 W/m2
15:25 2.4 °F -4.6 °F 30.55 in SSW 9.2 mph 9.2 mph 72% 0.00 in 132.0 W/m2
15:27 2.3 °F -4.7 °F 30.55 in South 6.9 mph 6.9 mph 72% 0.00 in 125.0 W/m2
15:28 2.2 °F -4.8 °F 30.54 in SSW 8.1 mph 8.1 mph 72% 0.00 in 121.0 W/m2
15:32 2.2 °F -4.5 °F 30.54 in SSW 9.2 mph 9.2 mph 73% 0.00 in 111.0 W/m2
15:37 2.1 °F -4.9 °F 30.54 in SSW 5.0 mph 5.0 mph 72% 0.00 in 97.0 W/m2
15:38 2.0 °F -5.0 °F 30.54 in SSW 6.9 mph 6.9 mph 72% 0.00 in 90.0 W/m2
15:43 1.8 °F -5.2 °F 30.54 in SSW 11.5 mph 11.5 mph 72% 0.00 in 25.0 W/m2
15:46 1.7 °F -5.0 °F 30.54 in SSW 11.5 mph 11.5 mph 73% 0.00 in 23.0 W/m2
15:51 1.5 °F -5.2 °F 30.54 in SW 6.9 mph 6.9 mph 73% 0.00 in 21.0 W/m2
15:52 1.5 °F -5.2 °F 30.54 in SSW 7.0 mph 7.0 mph 73% 0.00 in 21.0 W/m2
15:54 1.4 °F -5.3 °F 30.53 in SSW 3.5 mph 3.5 mph 73% 0.00 in 21.0 W/m2
15:59 1.4 °F -5.0 °F 30.53 in SSW 10.4 mph 10.4 mph 74% 0.00 in 19.0 W/m2
16:03 1.3 °F -4.8 °F 30.53 in SSW 6.9 mph 6.9 mph 75% 0.00 in 18.0 W/m2
16:06 1.2 °F -4.9 °F 30.52 in SSW 5.8 mph 5.8 mph 75% 0.00 in 16.0 W/m2
16:11 1.0 °F -4.8 °F 30.52 in SSW 8.1 mph 8.1 mph 76% 0.00 in 14.0 W/m2
16:13 1.0 °F -4.8 °F 30.52 in SSW 9.2 mph 9.2 mph 76% 0.00 in 14.0 W/m2
16:16 0.9 °F -4.9 °F 30.52 in SSW 6.9 mph 6.9 mph 76% 0.00 in 12.0 W/m2
16:18 0.9 °F -4.9 °F 30.52 in North 5.8 mph 5.8 mph 76% 0.00 in 12.0 W/m2
16:23 0.8 °F -5.0 °F 30.51 in SSW 3.5 mph 3.5 mph 76% 0.00 in 11.0 W/m2
16:28 0.7 °F -5.1 °F 30.51 in SSW 13.8 mph 13.8 mph 76% 0.00 in 7.0 W/m2
16:29 0.7 °F -4.8 °F 30.51 in South 11.5 mph 11.5 mph 77% 0.00 in 7.0 W/m2
16:34 0.6 °F -4.9 °F 30.51 in SSW 8.1 mph 8.1 mph 77% 0.00 in 5.0 W/m2
16:39 0.5 °F -5.0 °F 30.51 in SSW 6.9 mph 6.9 mph 77% 0.00 in 0.0 W/m2
16:44 0.4 °F -5.1 °F 30.51 in North 10.4 mph 10.4 mph 77% 0.00 in 0.0 W/m2
16:47 0.3 °F -5.2 °F 30.51 in SSW 10.0 mph 10.0 mph 77% 0.00 in 0.0 W/m2
16:52 0.2 °F -5.3 °F 30.50 in SSW 8.1 mph 8.1 mph 77% 0.00 in 0.0 W/m2
16:55 0.2 °F -5.3 °F 30.50 in SSW 8.1 mph 8.1 mph 77% 0.00 in 0.0 W/m2
17:01 0.1 °F -5.4 °F 30.50 in SSW 8.1 mph 8.1 mph 77% 0.00 in 0.0 W/m2
17:02 0.1 °F -5.4 °F 30.50 in SSW 6.9 mph 6.9 mph 77% 0.00 in 0.0 W/m2
17:06 0.0 °F -5.5 °F 30.50 in SSW 6.9 mph 6.9 mph 77% 0.00 in 0.0 W/m2
17:11 -0.1 °F -5.6 °F 30.49 in SSW 8.1 mph 8.1 mph 77% 0.00 in 0.0 W/m2
17:13 -0.1 °F -5.6 °F 30.49 in South 9.0 mph 9.0 mph 77% 0.00 in 0.0 W/m2
17:18 -0.4 °F -5.9 °F 30.49 in SW 4.6 mph 4.6 mph 77% 0.00 in 0.0 W/m2
17:23 -0.7 °F -6.2 °F 30.48 in South 4.6 mph 4.6 mph 77% 0.00 in 0.0 W/m2
17:24 -0.8 °F -6.3 °F 30.48 in SSW 4.6 mph 4.6 mph 77% 0.00 in 0.0 W/m2
17:29 -1.1 °F -6.6 °F 30.48 in SSW 3.5 mph 3.5 mph 77% 0.00 in 0.0 W/m2
17:35 -1.2 °F -6.4 °F 30.47 in SSW 4.6 mph 4.6 mph 78% 0.00 in 0.0 W/m2
17:40 -1.3 °F -6.2 °F 30.48 in SSW 8.1 mph 8.1 mph 79% 0.00 in 0.0 W/m2
17:44 -1.3 °F -6.2 °F 30.48 in SSW 5.8 mph 5.8 mph 79% 0.00 in 0.0 W/m2
17:46 -1.3 °F -6.2 °F 30.48 in SW 5.8 mph 5.8 mph 79% 0.00 in 0.0 W/m2
17:51 -1.2 °F -6.1 °F 30.47 in SW 4.6 mph 4.6 mph 79% 0.00 in 0.0 W/m2
17:56 -1.2 °F -6.1 °F 30.47 in SW 10.4 mph 10.4 mph 79% 0.00 in 0.0 W/m2
17:57 -1.1 °F -6.0 °F 30.47 in SSW 5.8 mph 5.8 mph 79% 0.00 in 0.0 W/m2
17:59 -1.0 °F -5.9 °F 30.47 in SSW 6.9 mph 6.9 mph 79% 0.00 in 0.0 W/m2
18:04 -0.8 °F -5.7 °F 30.47 in SW 10.4 mph 10.4 mph 79% 0.00 in 0.0 W/m2
18:05 -0.8 °F -5.7 °F 30.47 in SSW 10.4 mph 10.4 mph 79% 0.00 in 0.0 W/m2
18:10 -0.7 °F -5.9 °F 30.47 in South 9.2 mph 9.2 mph 78% 0.00 in 0.0 W/m2
18:12 -0.7 °F -5.9 °F 30.47 in SW 11.5 mph 11.5 mph 78% 0.00 in 0.0 W/m2
18:19 -0.6 °F -5.8 °F 30.47 in SSW 11.5 mph 11.5 mph 78% 0.00 in 0.0 W/m2
18:21 -0.6 °F -5.8 °F 30.47 in SSW 11.5 mph 11.5 mph 78% 0.00 in 0.0 W/m2
18:24 -0.6 °F -5.8 °F 30.47 in SSW 13.8 mph 13.8 mph 78% 0.00 in 0.0 W/m2
18:29 -0.7 °F -5.7 °F 30.46 in SW 9.2 mph 9.2 mph 79% 0.00 in 0.0 W/m2
18:30 -0.7 °F -5.9 °F 30.46 in SSW 8.1 mph 8.1 mph 78% 0.00 in 0.0 W/m2
18:35 -0.7 °F -5.7 °F 30.46 in SSW 6.9 mph 6.9 mph 79% 0.00 in 0.0 W/m2
18:41 -0.7 °F -5.7 °F 30.45 in South 11.5 mph 11.5 mph 79% 0.00 in 0.0 W/m2
18:46 -0.7 °F -5.7 °F 30.45 in SSW 11.5 mph 11.5 mph 79% 0.00 in 0.0 W/m2
18:48 -0.7 °F -5.7 °F 30.45 in SSW 8.1 mph 8.1 mph 79% 0.00 in 0.0 W/m2
18:53 -0.8 °F -5.7 °F 30.44 in SSW 11.5 mph 11.5 mph 79% 0.00 in 0.0 W/m2
18:54 -0.8 °F -5.7 °F 30.43 in SSW 9.0 mph 9.0 mph 79% 0.00 in 0.0 W/m2
18:59 -0.9 °F -5.8 °F 30.43 in SSW 8.1 mph 8.1 mph 79% 0.00 in 0.0 W/m2
19:00 -0.9 °F -5.8 °F 30.43 in SSW 6.9 mph 6.9 mph 79% 0.00 in 0.0 W/m2
19:01 -0.9 °F -5.8 °F 30.43 in SW 5.0 mph 5.0 mph 79% 0.00 in 0.0 W/m2
19:05 -0.9 °F -5.6 °F 30.42 in SSW 6.9 mph 6.9 mph 80% 0.00 in 0.0 W/m2
19:07 -0.8 °F -5.5 °F 30.42 in SSW 6.9 mph 6.9 mph 80% 0.00 in 0.0 W/m2
19:12 -0.6 °F -5.3 °F 30.42 in SSW 5.0 mph 5.0 mph 80% 0.00 in 0.0 W/m2
19:17 -0.4 °F -5.1 °F 30.42 in SSW 6.9 mph 6.9 mph 80% 0.00 in 0.0 W/m2
19:18 -0.3 °F -5.0 °F 30.42 in WSW 9.2 mph 9.2 mph 80% 0.00 in 0.0 W/m2
19:20 -0.2 °F -4.9 °F 30.41 in SSW 7.0 mph 7.0 mph 80% 0.00 in 0.0 W/m2
19:23 0.0 °F -4.7 °F 30.41 in SSW 10.4 mph 10.4 mph 80% 0.00 in 0.0 W/m2
19:29 0.4 °F -4.3 °F 30.41 in SSW 8.1 mph 8.1 mph 80% 0.00 in 0.0 W/m2
19:31 0.6 °F -4.1 °F 30.40 in SSW 5.8 mph 5.8 mph 80% 0.00 in 0.0 W/m2
19:36 0.9 °F -3.8 °F 30.39 in South 6.9 mph 6.9 mph 80% 0.00 in 0.0 W/m2
19:44 1.2 °F -3.8 °F 30.39 in South 6.9 mph 6.9 mph 79% 0.00 in 0.0 W/m2
19:51 1.2 °F -3.8 °F 30.38 in South 8.1 mph 8.1 mph 79% 0.00 in 0.0 W/m2
19:56 0.9 °F -4.4 °F 30.38 in South 4.6 mph 4.6 mph 78% 0.00 in 0.0 W/m2
19:57 0.9 °F -4.4 °F 30.38 in SW 9.2 mph 9.2 mph 78% 0.00 in 0.0 W/m2
20:02 0.7 °F -4.6 °F 30.38 in SSW 4.6 mph 4.6 mph 78% 0.00 in 0.0 W/m2
20:03 0.7 °F -4.6 °F 30.39 in SSW 2.3 mph 2.3 mph 78% 0.00 in 0.0 W/m2
20:04 0.7 °F -4.6 °F 30.38 in SSW 2.3 mph 2.3 mph 78% 0.00 in 0.0 W/m2
20:10 0.6 °F -4.6 °F 30.39 in SSW 8.1 mph 8.1 mph 78% 0.00 in 0.0 W/m2
20:15 0.6 °F -4.4 °F 30.39 in SSW 3.5 mph 3.5 mph 79% 0.00 in 0.0 W/m2
20:17 0.6 °F -4.4 °F 30.39 in SSW 3.5 mph 3.5 mph 79% 0.00 in 0.0 W/m2
20:22 0.8 °F -4.2 °F 30.38 in SSW 6.9 mph 6.9 mph 79% 0.00 in 0.0 W/m2
20:23 0.8 °F -4.2 °F 30.38 in SSW 4.6 mph 4.6 mph 79% 0.00 in 0.0 W/m2
20:28 0.9 °F -4.1 °F 30.31 in SSW 3.5 mph 3.5 mph 79% 0.00 in 0.0 W/m2
20:31 1.0 °F -4.0 °F 30.31 in SSW 8.1 mph 8.1 mph 79% 0.00 in 0.0 W/m2
20:33 1.1 °F -3.9 °F 30.31 in SSW 5.8 mph 5.8 mph 79% 0.00 in 0.0 W/m2
20:37 1.1 °F -3.9 °F 30.30 in SSW 8.0 mph 8.0 mph 79% 0.00 in 0.0 W/m2
20:39 1.1 °F -3.9 °F 30.30 in SSW 6.9 mph 6.9 mph 79% 0.00 in 0.0 W/m2
20:44 1.1 °F -3.9 °F 30.30 in SSW 5.8 mph 5.8 mph 79% 0.00 in 0.0 W/m2
20:47 1.1 °F -3.9 °F 30.30 in SSW 5.8 mph 5.8 mph 79% 0.00 in 0.0 W/m2
20:48 1.1 °F -3.9 °F 30.30 in SSW 4.6 mph 4.6 mph 79% 0.00 in 0.0 W/m2
20:53 1.2 °F -3.8 °F 30.29 in SSW 4.6 mph 4.6 mph 79% 0.00 in 0.0 W/m2
20:54 1.2 °F -3.8 °F 30.29 in SSW 5.8 mph 5.8 mph 79% 0.00 in 0.0 W/m2
20:59 1.5 °F -3.5 °F 30.29 in North 9.0 mph 9.0 mph 79% 0.00 in 0.0 W/m2
21:00 1.5 °F -3.5 °F 30.29 in SSW 11.5 mph 11.5 mph 79% 0.00 in 0.0 W/m2
21:05 1.6 °F -3.4 °F 30.28 in South 8.1 mph 8.1 mph 79% 0.00 in 0.0 W/m2
21:06 1.7 °F -3.3 °F 30.28 in SSW 6.0 mph 6.0 mph 79% 0.00 in 0.0 W/m2
21:07 1.7 °F -3.3 °F 30.28 in SSW 9.2 mph 9.2 mph 79% 0.00 in 0.0 W/m2
21:14 1.8 °F -3.2 °F 30.28 in SSW 10.4 mph 10.4 mph 79% 0.00 in 0.0 W/m2
21:20 1.9 °F -3.1 °F 30.27 in SSW 9.2 mph 9.2 mph 79% 0.00 in 0.0 W/m2
21:30 2.7 °F -2.3 °F 30.27 in SSW 9.2 mph 9.2 mph 79% 0.00 in 0.0 W/m2
21:40 3.3 °F -2.0 °F 30.26 in SSW 10.4 mph 10.4 mph 78% 0.00 in 0.0 W/m2
21:44 3.4 °F -1.9 °F 30.26 in South 11.5 mph 11.5 mph 78% 0.00 in 0.0 W/m2
21:47 3.5 °F -1.8 °F 30.26 in SW 11.5 mph 11.5 mph 78% 0.00 in 0.0 W/m2
21:49 3.7 °F -1.6 °F 30.26 in SSW 9.2 mph 9.2 mph 78% 0.00 in 0.0 W/m2
21:53 3.8 °F -1.5 °F 30.25 in SW 16.1 mph 16.1 mph 78% 0.00 in 0.0 W/m2
21:58 4.2 °F -1.4 °F 30.25 in SW 8.1 mph 8.1 mph 77% 0.00 in 0.0 W/m2
21:59 4.2 °F -1.4 °F 30.24 in SSW 11.5 mph 11.5 mph 77% 0.00 in 0.0 W/m2
22:09 4.7 °F -0.9 °F 30.25 in SSW 11.5 mph 11.5 mph 77% 0.00 in 0.0 W/m2
22:12 4.8 °F -1.1 °F 30.24 in SSW 10.4 mph 10.4 mph 76% 0.00 in 0.0 W/m2
22:16 4.9 °F -1.0 °F 30.24 in South 12.7 mph 12.7 mph 76% 0.00 in 0.0 W/m2
22:21 5.2 °F -0.7 °F 30.24 in SW 13.0 mph 13.0 mph 76% 0.00 in 0.0 W/m2
22:26 5.5 °F -0.4 °F 30.23 in SW 12.7 mph 12.7 mph 76% 0.00 in 0.0 W/m2
22:30 5.6 °F -0.3 °F 30.23 in SSW 14.0 mph 14.0 mph 76% 0.00 in 0.0 W/m2
22:35 5.6 °F -0.3 °F 30.23 in SW 11.5 mph 11.5 mph 76% 0.00 in 0.0 W/m2
22:37 5.6 °F -0.3 °F 30.23 in SW 8.0 mph 8.0 mph 76% 0.00 in 0.0 W/m2
22:39 5.6 °F -0.6 °F 30.23 in SW 14.0 mph 14.0 mph 75% 0.00 in 0.0 W/m2
22:42 5.6 °F -0.3 °F 30.23 in SSW 6.9 mph 6.9 mph 76% 0.00 in 0.0 W/m2
22:47 5.6 °F -0.3 °F 30.23 in SW 9.2 mph 9.2 mph 76% 0.00 in 0.0 W/m2
22:49 5.6 °F -0.6 °F 30.23 in SW 10.4 mph 10.4 mph 75% 0.00 in 0.0 W/m2
22:54 5.5 °F -0.4 °F 30.23 in SSW 11.0 mph 11.0 mph 76% 0.00 in 0.0 W/m2
22:55 5.6 °F -0.3 °F 30.23 in SSW 12.0 mph 12.0 mph 76% 0.00 in 0.0 W/m2
23:00 5.4 °F -0.8 °F 30.22 in South 11.5 mph 11.5 mph 75% 0.00 in 0.0 W/m2
23:04 5.4 °F -0.5 °F 30.22 in SW 11.5 mph 11.5 mph 76% 0.00 in 0.0 W/m2
23:05 5.3 °F -0.6 °F 30.22 in SW 9.2 mph 9.2 mph 76% 0.00 in 0.0 W/m2
23:09 5.3 °F -0.6 °F 30.22 in South 12.7 mph 12.7 mph 76% 0.00 in 0.0 W/m2
23:14 5.3 °F -0.6 °F 30.22 in SSW 9.2 mph 9.2 mph 76% 0.00 in 0.0 W/m2
23:16 5.3 °F -0.6 °F 30.22 in SSW 11.5 mph 11.5 mph 76% 0.00 in 0.0 W/m2
23:19 5.3 °F -0.6 °F 30.22 in SW 11.5 mph 11.5 mph 76% 0.00 in 0.0 W/m2
23:22 5.4 °F -0.5 °F 30.22 in SSW 11.5 mph 11.5 mph 76% 0.00 in 0.0 W/m2
23:25 5.4 °F -0.5 °F 30.22 in SSW 8.1 mph 8.1 mph 76% 0.00 in 0.0 W/m2
23:30 5.5 °F -0.4 °F 30.21 in SSW 10.4 mph 10.4 mph 76% 0.00 in 0.0 W/m2
23:35 5.6 °F -0.3 °F 30.21 in South 11.5 mph 11.5 mph 76% 0.00 in 0.0 W/m2
23:36 5.5 °F -0.4 °F 30.21 in SW 11.5 mph 11.5 mph 76% 0.00 in 0.0 W/m2
23:37 5.5 °F -0.4 °F 30.21 in WSW 11.5 mph 11.5 mph 76% 0.00 in 0.0 W/m2
23:42 5.6 °F -0.3 °F 30.21 in SSW 9.2 mph 9.2 mph 76% 0.00 in 0.0 W/m2
23:43 5.6 °F -0.3 °F 30.21 in SSW 6.9 mph 6.9 mph 76% 0.00 in 0.0 W/m2
23:48 5.6 °F -0.3 °F 30.20 in SSW 6.9 mph 6.9 mph 76% 0.00 in 0.0 W/m2
23:49 5.7 °F -0.2 °F 30.20 in SSW 5.8 mph 5.8 mph 76% 0.00 in 0.0 W/m2
23:54 5.6 °F -0.3 °F 30.20 in SSW 5.8 mph 5.8 mph 76% 0.00 in 0.0 W/m2
23:55 5.6 °F -0.3 °F 30.20 in SSW 3.5 mph   76% 0.00 in 0.0 W/m2
23:58 5.6 °F -0.3 °F 30.20 in SW 4.6 mph 4.6 mph 76% 0.00 in 0.0 W/m2
Bourbonnais, Illinois, USA
Compliments of Weather Underground - 4 mb